createdAt,value
2018-05-02T00:04:58.658Z,76.70
2018-05-02T00:10:02.000Z,77.40
2018-05-02T00:15:05.271Z,78.20
2018-05-02T00:20:08.508Z,78.50
2018-05-02T00:25:11.748Z,79.20
2018-05-02T00:30:15.000Z,79.70
2018-05-02T00:35:18.238Z,79.60
2018-05-02T00:40:21.479Z,79.80
2018-05-02T00:45:24.740Z,80.40
2018-05-02T00:50:27.983Z,79.50
2018-05-02T00:55:31.237Z,80.10
2018-05-02T01:00:35.246Z,81.30
2018-05-02T01:05:39.999Z,81.50
2018-05-02T01:10:43.249Z,81.60
2018-05-02T01:15:46.493Z,80.50
2018-05-02T01:20:49.740Z,79.70
2018-05-02T01:25:53.752Z,82.20
2018-05-02T01:30:57.836Z,82.70
2018-05-02T01:36:01.012Z,82.60
2018-05-02T01:41:04.258Z,82.50
2018-05-02T01:46:07.517Z,82.50
2018-05-02T01:51:10.767Z,82.70
2018-05-02T01:56:14.017Z,82.50
2018-05-02T02:01:18.043Z,82.90
2018-05-02T02:06:21.291Z,82.90
2018-05-02T02:11:24.548Z,83.30
2018-05-02T02:16:27.882Z,83.30
2018-05-02T02:21:31.923Z,83.80
2018-05-02T02:26:35.170Z,83.90
2018-05-02T02:31:38.427Z,84.10
2018-05-02T02:36:41.691Z,83.70
2018-05-02T02:41:44.939Z,81.10
2018-05-02T02:46:48.296Z,72.60
2018-05-02T02:51:51.532Z,70.50
2018-05-02T02:56:54.803Z,69.70
2018-05-02T03:01:58.038Z,75.90
2018-05-02T03:07:01.277Z,83.00
2018-05-02T03:12:05.299Z,86.20
2018-05-02T03:17:09.300Z,87.40
2018-05-02T03:22:12.586Z,87.40
2018-05-02T03:27:15.840Z,84.70
2018-05-02T03:32:19.087Z,86.00
2018-05-02T03:37:22.335Z,86.00
2018-05-02T03:42:25.576Z,86.50
2018-05-02T03:47:28.858Z,87.00
2018-05-02T03:52:32.100Z,87.10
2018-05-02T03:57:35.367Z,87.30
2018-05-02T04:02:50.541Z,87.60
2018-05-02T04:07:53.827Z,85.50
2018-05-02T04:12:57.051Z,86.80
2018-05-02T04:18:00.292Z,86.40
2018-05-02T04:23:03.547Z,86.10
2018-05-02T04:28:06.770Z,86.00
2018-05-02T04:33:10.018Z,85.10
2018-05-02T04:38:14.033Z,85.80
2018-05-02T04:43:17.289Z,85.80
2018-05-02T04:48:21.367Z,83.60
2018-05-02T04:53:24.610Z,83.70
2018-05-02T04:58:27.852Z,82.10
2018-05-02T05:03:31.110Z,80.80
2018-05-02T05:08:34.366Z,80.40
2018-05-02T05:13:37.671Z,80.40
2018-05-02T05:18:40.929Z,78.80
2018-05-02T05:23:44.965Z,76.10
2018-05-02T05:28:49.016Z,76.10
2018-05-02T05:33:52.268Z,75.40
2018-05-02T05:38:55.553Z,74.10
2018-05-02T05:43:58.800Z,75.70
2018-05-02T05:49:02.072Z,74.50
2018-05-02T05:54:05.354Z,72.60
2018-05-02T05:59:09.347Z,68.60
2018-05-02T06:04:13.363Z,69.10
2018-05-02T06:09:17.379Z,68.50
2018-05-02T06:14:20.635Z,68.40
2018-05-02T06:19:23.923Z,67.60
2018-05-02T06:24:27.944Z,64.80
2018-05-02T06:29:31.220Z,64.80
2018-05-02T06:34:34.497Z,64.40
2018-05-02T06:39:37.755Z,61.20
2018-05-02T06:44:41.866Z,60.70
2018-05-02T06:49:45.840Z,59.10
2018-05-02T06:54:49.105Z,59.00
2018-05-02T06:59:52.353Z,55.20
2018-05-02T07:04:55.632Z,53.90
2018-05-02T07:09:58.898Z,56.80
2018-05-02T07:15:02.156Z,53.60
2018-05-02T07:20:06.175Z,50.70
2018-05-02T07:25:13.829Z,50.70
2018-05-02T07:30:18.001Z,50.20
2018-05-02T07:35:21.269Z,51.30
2018-05-02T07:40:24.547Z,45.40
2018-05-02T07:45:27.796Z,50.60
2018-05-02T07:50:31.080Z,51.40
2018-05-02T07:55:34.332Z,44.70
2018-05-02T08:00:37.584Z,46.10
2018-05-02T08:05:40.854Z,47.50
2018-05-02T08:10:44.106Z,46.70
2018-05-02T08:15:47.467Z,47.00
2018-05-02T08:20:50.719Z,40.50
2018-05-02T08:25:54.159Z,46.20
2018-05-02T08:30:57.432Z,41.60
2018-05-02T08:36:00.694Z,43.30
2018-05-02T08:41:03.963Z,43.20
2018-05-02T08:46:07.336Z,42.10
2018-05-02T08:51:11.455Z,39.60
2018-05-02T08:56:14.724Z,39.90
2018-05-02T09:01:17.992Z,38.90
2018-05-02T09:06:21.255Z,37.00
2018-05-02T09:11:24.527Z,39.10
2018-05-02T09:16:28.566Z,34.30
2018-05-02T09:21:31.844Z,34.20
2018-05-02T09:32:09.512Z,32.60
2018-05-02T09:37:12.763Z,32.60
2018-05-02T09:42:16.019Z,31.10
2018-05-02T09:47:19.300Z,33.80
2018-05-02T09:52:23.339Z,35.40
2018-05-02T09:57:26.617Z,34.60
2018-05-02T10:02:29.891Z,34.10
2018-05-02T10:07:33.203Z,33.60
2018-05-02T10:12:36.471Z,38.50
2018-05-02T10:17:39.751Z,35.00
2018-05-02T10:22:43.012Z,37.70
2018-05-02T10:27:47.023Z,35.40
2018-05-02T10:32:51.071Z,35.50
2018-05-02T10:37:54.355Z,34.50
2018-05-02T10:42:58.408Z,30.70
2018-05-02T10:48:01.692Z,30.50
2018-05-02T10:53:04.980Z,32.50
2018-05-02T10:58:09.008Z,34.20
2018-05-02T11:03:13.027Z,34.10
2018-05-02T11:08:16.366Z,34.60
2018-05-02T11:13:19.563Z,34.20
2018-05-02T11:18:23.599Z,36.20
2018-05-02T11:23:26.910Z,36.10
2018-05-02T11:28:31.135Z,32.70
2018-05-02T11:33:34.321Z,35.40
2018-05-02T11:38:37.574Z,35.20
2018-05-02T11:43:40.847Z,33.30
2018-05-02T11:48:45.627Z,28.10
2018-05-02T11:53:48.902Z,27.80
2018-05-02T11:58:52.927Z,30.70
2018-05-02T12:03:57.033Z,31.80
2018-05-02T12:09:00.304Z,31.50
2018-05-02T12:14:03.567Z,29.00
2018-05-02T12:19:06.832Z,32.60
2018-05-02T12:24:10.089Z,31.50
2018-05-02T12:29:13.371Z,29.30
2018-05-02T12:34:16.639Z,28.90
2018-05-02T12:39:19.995Z,32.60
2018-05-02T12:44:23.283Z,29.10
2018-05-02T12:49:26.547Z,27.20
2018-05-02T12:54:29.834Z,25.20
2018-05-02T12:59:33.096Z,26.00
2018-05-02T13:04:36.360Z,25.90
2018-05-02T13:09:40.377Z,27.80
2018-05-02T13:14:43.632Z,27.50
2018-05-02T13:19:46.905Z,29.40
2018-05-02T13:24:50.947Z,27.10
2018-05-02T13:29:54.991Z,29.20
2018-05-02T13:34:58.270Z,29.00
2018-05-02T13:40:02.310Z,29.30
2018-05-02T13:45:05.571Z,29.20
2018-05-02T13:50:08.835Z,28.60
2018-05-02T13:55:12.172Z,31.50
2018-05-02T14:00:15.444Z,28.00
2018-05-02T14:05:19.528Z,30.20
2018-05-02T14:10:22.787Z,29.60
2018-05-02T14:15:26.040Z,29.50
2018-05-02T14:20:29.294Z,30.70
2018-05-02T14:25:32.546Z,28.90
2018-05-02T14:30:35.808Z,31.30
2018-05-02T14:35:39.085Z,30.00
2018-05-02T14:40:42.353Z,27.50
2018-05-02T14:45:45.628Z,29.00
2018-05-02T14:50:48.910Z,30.00
2018-05-02T14:55:52.944Z,31.80
2018-05-02T15:00:56.983Z,32.40
2018-05-02T15:06:01.007Z,33.10
2018-05-02T15:11:04.278Z,33.10
2018-05-02T15:16:07.526Z,32.60
2018-05-02T15:21:11.540Z,33.70
2018-05-02T15:26:14.798Z,33.70
2018-05-02T15:31:18.060Z,31.60
2018-05-02T15:36:21.337Z,35.30
2018-05-02T15:41:24.587Z,35.00
2018-05-02T15:46:27.850Z,33.80
2018-05-02T15:51:31.099Z,34.50
2018-05-02T15:56:34.418Z,35.40
2018-05-02T16:01:38.432Z,33.30
2018-05-02T16:06:41.682Z,33.30
2018-05-02T16:11:44.940Z,31.80
2018-05-02T16:16:48.183Z,30.60
2018-05-02T16:21:51.472Z,33.70
2018-05-02T16:26:54.721Z,33.40
2018-05-02T16:31:57.975Z,31.50
2018-05-02T16:37:01.991Z,36.40
2018-05-02T16:42:05.264Z,36.30
2018-05-02T16:47:08.593Z,37.50
2018-05-02T16:52:11.859Z,37.10
2018-05-02T16:57:15.148Z,37.80
2018-05-02T17:02:18.421Z,37.40
2018-05-02T17:07:21.987Z,38.60
2018-05-02T17:12:26.000Z,39.70
2018-05-02T17:17:29.251Z,39.70
2018-05-02T17:22:32.507Z,39.80
2018-05-02T17:27:36.744Z,40.10
2018-05-02T17:32:40.012Z,40.00
2018-05-02T17:37:43.291Z,39.30
2018-05-02T17:42:46.558Z,40.30
2018-05-02T17:47:49.805Z,41.20
2018-05-02T17:52:53.154Z,40.60
2018-05-02T17:57:56.339Z,41.60
2018-05-02T18:02:59.594Z,41.70
2018-05-02T18:08:03.620Z,41.90
2018-05-02T18:13:07.639Z,42.80
2018-05-02T18:18:11.664Z,43.50
2018-05-02T18:23:15.692Z,43.20
2018-05-02T18:28:19.704Z,43.20
2018-05-02T18:33:23.747Z,42.70
2018-05-02T18:38:27.752Z,42.80
2018-05-02T18:43:31.018Z,42.70
2018-05-02T18:48:34.276Z,43.70
2018-05-02T18:53:37.534Z,43.20
2018-05-02T18:58:41.595Z,44.30
2018-05-02T19:03:44.907Z,44.00
2018-05-02T19:08:48.185Z,44.80
2018-05-02T19:14:06.143Z,45.40
2018-05-02T19:19:15.317Z,45.50
2018-05-02T19:24:18.616Z,46.20
2018-05-02T19:29:21.919Z,46.30
2018-05-02T19:34:25.958Z,47.00
2018-05-02T19:39:29.203Z,46.90
2018-05-02T19:44:32.500Z,47.60
2018-05-02T19:49:36.923Z,49.40
2018-05-02T19:54:40.180Z,49.80
2018-05-02T19:59:43.521Z,50.30
2018-05-02T20:04:46.788Z,50.30
2018-05-02T20:09:55.764Z,48.80
2018-05-02T20:14:59.012Z,48.70
2018-05-02T20:20:03.064Z,50.90
2018-05-02T20:25:08.228Z,50.90
2018-05-02T20:30:11.473Z,52.30
2018-05-02T20:35:14.752Z,51.10
2018-05-02T20:40:18.107Z,51.00
2018-05-02T20:45:21.446Z,50.60
2018-05-02T20:50:24.694Z,50.50
2018-05-02T20:55:28.756Z,50.90
2018-05-02T21:00:32.151Z,50.80
2018-05-02T21:05:35.415Z,50.50
2018-05-02T21:10:38.671Z,51.70
2018-05-02T21:15:41.923Z,52.40
2018-05-02T21:20:45.195Z,51.20
2018-05-02T21:25:49.422Z,54.30
2018-05-02T21:30:56.317Z,56.50
2018-05-02T21:35:59.579Z,56.50
2018-05-02T21:41:02.840Z,57.50
2018-05-02T21:46:06.859Z,54.40
2018-05-02T21:51:10.103Z,54.40
2018-05-02T21:56:13.369Z,54.20
2018-05-02T22:01:16.626Z,55.50
2018-05-02T22:06:19.887Z,52.20
2018-05-02T22:11:23.152Z,50.80
2018-05-02T22:16:26.412Z,51.30
2018-05-02T22:21:30.429Z,50.40
2018-05-02T22:26:33.704Z,50.30
2018-05-02T22:31:37.012Z,50.30
2018-05-02T22:36:40.295Z,50.90
2018-05-02T22:41:43.561Z,50.30
2018-05-02T22:46:46.948Z,50.00
2018-05-02T22:51:50.215Z,50.00
2018-05-02T22:56:53.491Z,50.00
2018-05-02T23:01:56.787Z,49.80
2018-05-02T23:07:00.081Z,49.90
2018-05-02T23:12:03.360Z,50.30
2018-05-02T23:17:06.640Z,50.00
2018-05-02T23:22:09.900Z,50.10
2018-05-02T23:27:13.148Z,49.80
2018-05-02T23:32:16.411Z,50.40
2018-05-02T23:37:19.680Z,51.40
2018-05-02T23:42:22.955Z,51.00
2018-05-02T23:47:26.209Z,50.40
2018-05-02T23:52:29.462Z,49.90
2018-05-02T23:57:32.724Z,51.70
